sensor_id;sensor_type;location;lat;lon;timestamp;P1;durP1;ratioP1;P2;durP2;ratioP2
828;SDS011;396;52.558;13.188;2023-05-07T00:00:49;11.93;;;6.37;;
828;SDS011;396;52.558;13.188;2023-05-07T00:03:17;12.93;;;6.20;;
828;SDS011;396;52.558;13.188;2023-05-07T00:05:45;15.13;;;6.87;;
828;SDS011;396;52.558;13.188;2023-05-07T00:08:11;11.97;;;6.07;;
828;SDS011;396;52.558;13.188;2023-05-07T00:10:38;14.80;;;6.13;;
828;SDS011;396;52.558;13.188;2023-05-07T00:13:05;10.33;;;5.80;;
828;SDS011;396;52.558;13.188;2023-05-07T00:15:31;15.70;;;7.40;;
828;SDS011;396;52.558;13.188;2023-05-07T00:17:58;18.20;;;6.60;;
828;SDS011;396;52.558;13.188;2023-05-07T00:20:26;10.63;;;5.47;;
828;SDS011;396;52.558;13.188;2023-05-07T00:22:52;11.13;;;6.33;;
828;SDS011;396;52.558;13.188;2023-05-07T00:25:19;11.63;;;6.13;;
828;SDS011;396;52.558;13.188;2023-05-07T00:27:46;13.20;;;6.13;;
828;SDS011;396;52.558;13.188;2023-05-07T00:30:12;10.90;;;4.93;;
828;SDS011;396;52.558;13.188;2023-05-07T00:32:39;11.67;;;5.20;;
828;SDS011;396;52.558;13.188;2023-05-07T00:35:06;13.13;;;5.90;;
828;SDS011;396;52.558;13.188;2023-05-07T00:37:35;11.50;;;5.30;;
828;SDS011;396;52.558;13.188;2023-05-07T00:40:02;12.33;;;4.90;;
828;SDS011;396;52.558;13.188;2023-05-07T00:42:32;13.23;;;4.83;;
828;SDS011;396;52.558;13.188;2023-05-07T00:44:58;14.73;;;5.93;;
828;SDS011;396;52.558;13.188;2023-05-07T00:47:25;16.30;;;5.60;;
828;SDS011;396;52.558;13.188;2023-05-07T00:49:52;11.27;;;5.40;;
828;SDS011;396;52.558;13.188;2023-05-07T00:52:19;15.17;;;5.93;;
828;SDS011;396;52.558;13.188;2023-05-07T00:54:49;14.13;;;5.60;;
828;SDS011;396;52.558;13.188;2023-05-07T00:57:16;12.00;;;4.70;;
828;SDS011;396;52.558;13.188;2023-05-07T00:59:43;14.10;;;6.20;;
828;SDS011;396;52.558;13.188;2023-05-07T01:02:10;14.07;;;5.40;;
828;SDS011;396;52.558;13.188;2023-05-07T01:04:36;14.00;;;5.03;;
828;SDS011;396;52.558;13.188;2023-05-07T01:07:03;13.20;;;5.23;;
828;SDS011;396;52.558;13.188;2023-05-07T01:09:31;10.87;;;5.43;;
828;SDS011;396;52.558;13.188;2023-05-07T01:12:01;14.00;;;4.80;;
828;SDS011;396;52.558;13.188;2023-05-07T01:14:29;11.50;;;5.30;;
828;SDS011;396;52.558;13.188;2023-05-07T01:16:58;10.90;;;5.47;;
828;SDS011;396;52.558;13.188;2023-05-07T01:19:25;11.10;;;5.20;;
828;SDS011;396;52.558;13.188;2023-05-07T01:21:52;12.80;;;5.40;;
828;SDS011;396;52.558;13.188;2023-05-07T01:24:28;11.27;;;5.37;;
828;SDS011;396;52.558;13.188;2023-05-07T01:26:56;11.20;;;5.53;;
828;SDS011;396;52.558;13.188;2023-05-07T01:29:22;10.80;;;5.37;;
828;SDS011;396;52.558;13.188;2023-05-07T01:31:49;11.53;;;4.50;;
828;SDS011;396;52.558;13.188;2023-05-07T01:34:18;13.10;;;6.23;;
828;SDS011;396;52.558;13.188;2023-05-07T01:36:47;11.77;;;5.70;;
828;SDS011;396;52.558;13.188;2023-05-07T01:39:14;13.33;;;5.60;;
828;SDS011;396;52.558;13.188;2023-05-07T01:41:43;12.57;;;5.83;;
828;SDS011;396;52.558;13.188;2023-05-07T01:44:12;10.20;;;4.63;;
828;SDS011;396;52.558;13.188;2023-05-07T01:46:39;15.83;;;5.53;;
828;SDS011;396;52.558;13.188;2023-05-07T01:49:06;12.63;;;4.60;;
828;SDS011;396;52.558;13.188;2023-05-07T01:51:33;13.33;;;5.20;;
828;SDS011;396;52.558;13.188;2023-05-07T01:54:00;9.30;;;5.20;;
828;SDS011;396;52.558;13.188;2023-05-07T01:56:27;11.10;;;4.63;;
828;SDS011;396;52.558;13.188;2023-05-07T01:58:55;10.27;;;5.70;;
828;SDS011;396;52.558;13.188;2023-05-07T02:01:21;10.43;;;5.33;;
828;SDS011;396;52.558;13.188;2023-05-07T02:03:48;11.90;;;4.87;;
828;SDS011;396;52.558;13.188;2023-05-07T02:06:15;10.80;;;5.30;;
828;SDS011;396;52.558;13.188;2023-05-07T02:08:41;10.37;;;5.50;;
828;SDS011;396;52.558;13.188;2023-05-07T02:11:08;10.97;;;5.13;;
828;SDS011;396;52.558;13.188;2023-05-07T02:13:34;8.47;;;4.43;;
828;SDS011;396;52.558;13.188;2023-05-07T02:16:02;14.00;;;5.80;;
828;SDS011;396;52.558;13.188;2023-05-07T02:18:30;11.47;;;5.10;;
828;SDS011;396;52.558;13.188;2023-05-07T02:20:57;16.40;;;6.33;;
828;SDS011;396;52.558;13.188;2023-05-07T02:23:23;16.07;;;5.00;;
828;SDS011;396;52.558;13.188;2023-05-07T02:25:50;13.43;;;6.37;;
828;SDS011;396;52.558;13.188;2023-05-07T02:28:17;14.80;;;6.00;;
828;SDS011;396;52.558;13.188;2023-05-07T02:30:43;11.80;;;5.37;;
828;SDS011;396;52.558;13.188;2023-05-07T02:33:11;11.83;;;5.20;;
828;SDS011;396;52.558;13.188;2023-05-07T02:35:39;10.60;;;5.20;;
828;SDS011;396;52.558;13.188;2023-05-07T02:38:05;18.23;;;5.60;;
828;SDS011;396;52.558;13.188;2023-05-07T02:40:32;10.20;;;5.07;;
828;SDS011;396;52.558;13.188;2023-05-07T02:43:03;12.43;;;5.37;;
828;SDS011;396;52.558;13.188;2023-05-07T02:45:30;10.80;;;5.93;;
828;SDS011;396;52.558;13.188;2023-05-07T02:47:57;10.50;;;5.50;;
828;SDS011;396;52.558;13.188;2023-05-07T02:50:25;9.10;;;4.43;;
828;SDS011;396;52.558;13.188;2023-05-07T02:52:52;12.43;;;5.30;;
828;SDS011;396;52.558;13.188;2023-05-07T02:55:18;10.67;;;5.63;;
828;SDS011;396;52.558;13.188;2023-05-07T02:57:45;11.63;;;5.60;;
828;SDS011;396;52.558;13.188;2023-05-07T03:00:12;13.17;;;5.80;;
828;SDS011;396;52.558;13.188;2023-05-07T03:02:40;11.70;;;5.63;;
828;SDS011;396;52.558;13.188;2023-05-07T03:05:07;12.90;;;5.40;;
828;SDS011;396;52.558;13.188;2023-05-07T03:07:35;10.50;;;4.97;;
828;SDS011;396;52.558;13.188;2023-05-07T03:10:03;12.37;;;5.67;;
828;SDS011;396;52.558;13.188;2023-05-07T03:12:30;12.90;;;4.93;;
828;SDS011;396;52.558;13.188;2023-05-07T03:14:57;13.70;;;5.00;;
828;SDS011;396;52.558;13.188;2023-05-07T03:17:23;12.13;;;4.90;;
828;SDS011;396;52.558;13.188;2023-05-07T03:19:50;11.60;;;5.40;;
828;SDS011;396;52.558;13.188;2023-05-07T03:22:16;12.97;;;5.60;;
828;SDS011;396;52.558;13.188;2023-05-07T03:24:44;11.00;;;5.33;;
828;SDS011;396;52.558;13.188;2023-05-07T03:27:11;18.13;;;4.70;;
828;SDS011;396;52.558;13.188;2023-05-07T03:29:37;10.13;;;4.07;;
828;SDS011;396;52.558;13.188;2023-05-07T03:32:04;13.37;;;4.77;;
828;SDS011;396;52.558;13.188;2023-05-07T03:34:31;14.30;;;5.80;;
828;SDS011;396;52.558;13.188;2023-05-07T03:36:58;8.83;;;4.10;;
828;SDS011;396;52.558;13.188;2023-05-07T03:39:24;10.50;;;4.50;;
828;SDS011;396;52.558;13.188;2023-05-07T03:41:52;15.43;;;5.30;;
828;SDS011;396;52.558;13.188;2023-05-07T03:44:19;9.60;;;4.63;;
828;SDS011;396;52.558;13.188;2023-05-07T03:46:46;9.60;;;4.43;;
828;SDS011;396;52.558;13.188;2023-05-07T03:49:12;11.43;;;5.27;;
828;SDS011;396;52.558;13.188;2023-05-07T03:51:39;11.93;;;5.73;;
828;SDS011;396;52.558;13.188;2023-05-07T03:54:05;9.10;;;3.80;;
828;SDS011;396;52.558;13.188;2023-05-07T03:56:32;13.83;;;4.37;;
828;SDS011;396;52.558;13.188;2023-05-07T03:59:00;14.00;;;4.57;;
828;SDS011;396;52.558;13.188;2023-05-07T04:01:27;12.73;;;4.77;;
828;SDS011;396;52.558;13.188;2023-05-07T04:03:53;9.10;;;3.40;;
828;SDS011;396;52.558;13.188;2023-05-07T04:06:20;12.17;;;5.10;;
828;SDS011;396;52.558;13.188;2023-05-07T04:08:47;14.47;;;4.47;;
828;SDS011;396;52.558;13.188;2023-05-07T04:11:13;10.37;;;4.63;;
828;SDS011;396;52.558;13.188;2023-05-07T04:13:40;9.60;;;4.30;;
828;SDS011;396;52.558;13.188;2023-05-07T04:16:11;10.93;;;3.90;;
828;SDS011;396;52.558;13.188;2023-05-07T04:18:38;8.47;;;3.90;;
828;SDS011;396;52.558;13.188;2023-05-07T04:21:04;8.97;;;4.50;;
828;SDS011;396;52.558;13.188;2023-05-07T04:23:31;9.70;;;4.30;;
828;SDS011;396;52.558;13.188;2023-05-07T04:25:58;12.13;;;4.23;;
828;SDS011;396;52.558;13.188;2023-05-07T04:28:25;11.90;;;4.10;;
828;SDS011;396;52.558;13.188;2023-05-07T04:30:52;10.50;;;4.77;;
828;SDS011;396;52.558;13.188;2023-05-07T04:33:20;10.10;;;4.33;;
828;SDS011;396;52.558;13.188;2023-05-07T04:35:47;11.47;;;3.90;;
828;SDS011;396;52.558;13.188;2023-05-07T04:38:13;11.10;;;5.10;;
828;SDS011;396;52.558;13.188;2023-05-07T04:40:40;11.03;;;5.20;;
828;SDS011;396;52.558;13.188;2023-05-07T04:43:07;9.83;;;4.37;;
828;SDS011;396;52.558;13.188;2023-05-07T04:45:34;10.50;;;4.97;;
828;SDS011;396;52.558;13.188;2023-05-07T04:48:01;10.23;;;4.90;;
828;SDS011;396;52.558;13.188;2023-05-07T04:50:29;8.53;;;3.43;;
828;SDS011;396;52.558;13.188;2023-05-07T04:52:56;12.33;;;4.83;;
828;SDS011;396;52.558;13.188;2023-05-07T04:55:22;9.77;;;4.53;;
828;SDS011;396;52.558;13.188;2023-05-07T04:57:49;9.30;;;3.80;;
828;SDS011;396;52.558;13.188;2023-05-07T05:00:16;9.90;;;4.23;;
828;SDS011;396;52.558;13.188;2023-05-07T05:02:44;11.40;;;4.13;;
828;SDS011;396;52.558;13.188;2023-05-07T05:05:11;7.43;;;3.30;;
828;SDS011;396;52.558;13.188;2023-05-07T05:07:39;8.50;;;4.23;;
828;SDS011;396;52.558;13.188;2023-05-07T05:10:06;8.90;;;3.60;;
828;SDS011;396;52.558;13.188;2023-05-07T05:12:33;9.23;;;4.13;;
828;SDS011;396;52.558;13.188;2023-05-07T05:14:59;7.37;;;3.10;;
828;SDS011;396;52.558;13.188;2023-05-07T05:17:26;9.23;;;3.33;;
828;SDS011;396;52.558;13.188;2023-05-07T05:19:52;9.37;;;3.70;;
828;SDS011;396;52.558;13.188;2023-05-07T05:22:19;8.17;;;3.50;;
828;SDS011;396;52.558;13.188;2023-05-07T05:24:47;7.33;;;2.73;;
828;SDS011;396;52.558;13.188;2023-05-07T05:27:14;9.67;;;4.47;;
828;SDS011;396;52.558;13.188;2023-05-07T05:29:40;13.40;;;4.17;;
828;SDS011;396;52.558;13.188;2023-05-07T05:32:07;9.40;;;3.63;;
828;SDS011;396;52.558;13.188;2023-05-07T05:34:34;8.67;;;3.40;;
828;SDS011;396;52.558;13.188;2023-05-07T05:37:00;8.50;;;3.17;;
828;SDS011;396;52.558;13.188;2023-05-07T05:39:27;7.20;;;2.90;;
828;SDS011;396;52.558;13.188;2023-05-07T05:41:55;13.70;;;3.80;;
828;SDS011;396;52.558;13.188;2023-05-07T05:44:22;7.87;;;3.07;;
828;SDS011;396;52.558;13.188;2023-05-07T05:46:48;7.20;;;2.97;;
828;SDS011;396;52.558;13.188;2023-05-07T05:49:15;10.00;;;3.90;;
828;SDS011;396;52.558;13.188;2023-05-07T05:51:42;8.67;;;3.70;;
828;SDS011;396;52.558;13.188;2023-05-07T05:54:09;12.10;;;4.00;;
828;SDS011;396;52.558;13.188;2023-05-07T05:56:36;6.77;;;2.73;;
828;SDS011;396;52.558;13.188;2023-05-07T05:59:04;8.63;;;3.33;;
828;SDS011;396;52.558;13.188;2023-05-07T06:01:31;8.63;;;3.00;;
828;SDS011;396;52.558;13.188;2023-05-07T06:03:58;11.70;;;3.43;;
828;SDS011;396;52.558;13.188;2023-05-07T06:06:25;7.13;;;3.00;;
828;SDS011;396;52.558;13.188;2023-05-07T06:08:52;6.07;;;2.57;;
828;SDS011;396;52.558;13.188;2023-05-07T06:11:19;7.43;;;3.60;;
828;SDS011;396;52.558;13.188;2023-05-07T06:13:46;9.67;;;3.90;;
828;SDS011;396;52.558;13.188;2023-05-07T06:19:36;13.23;;;4.43;;
828;SDS011;396;52.558;13.188;2023-05-07T06:22:03;9.77;;;3.67;;
828;SDS011;396;52.558;13.188;2023-05-07T06:24:29;8.50;;;3.80;;
828;SDS011;396;52.558;13.188;2023-05-07T06:27:08;7.50;;;3.30;;
828;SDS011;396;52.558;13.188;2023-05-07T06:29:37;9.07;;;3.53;;
828;SDS011;396;52.558;13.188;2023-05-07T06:32:15;7.80;;;3.00;;
828;SDS011;396;52.558;13.188;2023-05-07T06:34:49;7.70;;;3.73;;
828;SDS011;396;52.558;13.188;2023-05-07T06:37:16;8.23;;;3.37;;
828;SDS011;396;52.558;13.188;2023-05-07T06:39:42;9.57;;;3.43;;
828;SDS011;396;52.558;13.188;2023-05-07T06:42:09;8.10;;;3.40;;
828;SDS011;396;52.558;13.188;2023-05-07T06:44:38;12.07;;;4.47;;
828;SDS011;396;52.558;13.188;2023-05-07T06:47:05;6.27;;;2.57;;
828;SDS011;396;52.558;13.188;2023-05-07T06:49:31;9.13;;;4.27;;
828;SDS011;396;52.558;13.188;2023-05-07T06:51:59;12.23;;;3.50;;
828;SDS011;396;52.558;13.188;2023-05-07T06:54:26;10.00;;;3.03;;
828;SDS011;396;52.558;13.188;2023-05-07T06:56:53;9.47;;;4.57;;
828;SDS011;396;52.558;13.188;2023-05-07T06:59:20;8.10;;;2.73;;
828;SDS011;396;52.558;13.188;2023-05-07T07:01:46;9.50;;;4.00;;
828;SDS011;396;52.558;13.188;2023-05-07T07:04:13;10.37;;;3.50;;
828;SDS011;396;52.558;13.188;2023-05-07T07:06:41;17.83;;;4.40;;
828;SDS011;396;52.558;13.188;2023-05-07T07:09:09;11.40;;;3.50;;
828;SDS011;396;52.558;13.188;2023-05-07T07:11:36;7.70;;;2.90;;
828;SDS011;396;52.558;13.188;2023-05-07T07:14:02;7.47;;;3.37;;
828;SDS011;396;52.558;13.188;2023-05-07T07:16:32;6.90;;;3.10;;
828;SDS011;396;52.558;13.188;2023-05-07T07:18:59;8.60;;;3.50;;
828;SDS011;396;52.558;13.188;2023-05-07T07:21:26;10.60;;;3.60;;
828;SDS011;396;52.558;13.188;2023-05-07T07:23:52;9.80;;;4.00;;
828;SDS011;396;52.558;13.188;2023-05-07T07:26:20;11.07;;;3.47;;
828;SDS011;396;52.558;13.188;2023-05-07T07:28:47;8.43;;;3.57;;
828;SDS011;396;52.558;13.188;2023-05-07T07:31:14;8.20;;;3.13;;
828;SDS011;396;52.558;13.188;2023-05-07T07:33:41;8.87;;;3.73;;
828;SDS011;396;52.558;13.188;2023-05-07T07:36:07;7.27;;;3.00;;
828;SDS011;396;52.558;13.188;2023-05-07T07:38:34;7.10;;;2.50;;
828;SDS011;396;52.558;13.188;2023-05-07T07:41:01;7.10;;;3.33;;
828;SDS011;396;52.558;13.188;2023-05-07T07:43:32;8.10;;;2.73;;
828;SDS011;396;52.558;13.188;2023-05-07T07:45:58;10.40;;;3.50;;
828;SDS011;396;52.558;13.188;2023-05-07T07:48:25;7.90;;;3.40;;
828;SDS011;396;52.558;13.188;2023-05-07T07:50:52;6.80;;;2.40;;
828;SDS011;396;52.558;13.188;2023-05-07T07:53:29;9.13;;;2.93;;
828;SDS011;396;52.558;13.188;2023-05-07T07:55:55;10.10;;;2.87;;
828;SDS011;396;52.558;13.188;2023-05-07T07:58:22;7.40;;;2.67;;
828;SDS011;396;52.558;13.188;2023-05-07T08:00:51;7.13;;;2.90;;
828;SDS011;396;52.558;13.188;2023-05-07T08:03:18;7.40;;;2.40;;
828;SDS011;396;52.558;13.188;2023-05-07T08:05:44;7.73;;;2.83;;
828;SDS011;396;52.558;13.188;2023-05-07T08:08:14;6.10;;;2.27;;
828;SDS011;396;52.558;13.188;2023-05-07T08:10:41;7.10;;;2.53;;
828;SDS011;396;52.558;13.188;2023-05-07T08:13:08;5.80;;;2.13;;
828;SDS011;396;52.558;13.188;2023-05-07T08:15:34;6.20;;;1.97;;
828;SDS011;396;52.558;13.188;2023-05-07T08:18:02;6.43;;;2.20;;
828;SDS011;396;52.558;13.188;2023-05-07T08:20:29;6.53;;;2.33;;
828;SDS011;396;52.558;13.188;2023-05-07T08:22:56;7.37;;;2.27;;
828;SDS011;396;52.558;13.188;2023-05-07T08:25:23;6.40;;;2.40;;
828;SDS011;396;52.558;13.188;2023-05-07T08:27:50;7.00;;;2.37;;
828;SDS011;396;52.558;13.188;2023-05-07T08:30:17;7.40;;;2.50;;
828;SDS011;396;52.558;13.188;2023-05-07T08:32:43;5.40;;;1.70;;
828;SDS011;396;52.558;13.188;2023-05-07T08:35:12;6.43;;;2.17;;
828;SDS011;396;52.558;13.188;2023-05-07T08:37:39;8.97;;;1.97;;
828;SDS011;396;52.558;13.188;2023-05-07T08:40:06;6.70;;;2.03;;
828;SDS011;396;52.558;13.188;2023-05-07T08:42:35;6.00;;;1.77;;
828;SDS011;396;52.558;13.188;2023-05-07T08:45:05;5.50;;;1.83;;
828;SDS011;396;52.558;13.188;2023-05-07T08:47:40;6.57;;;1.87;;
828;SDS011;396;52.558;13.188;2023-05-07T08:50:14;6.73;;;2.17;;
828;SDS011;396;52.558;13.188;2023-05-07T08:52:41;5.93;;;2.13;;
828;SDS011;396;52.558;13.188;2023-05-07T08:55:09;5.87;;;1.67;;
828;SDS011;396;52.558;13.188;2023-05-07T08:57:37;6.03;;;1.90;;
828;SDS011;396;52.558;13.188;2023-05-07T09:00:04;7.40;;;1.83;;
828;SDS011;396;52.558;13.188;2023-05-07T09:02:32;7.90;;;2.10;;
828;SDS011;396;52.558;13.188;2023-05-07T09:04:59;5.00;;;1.50;;
828;SDS011;396;52.558;13.188;2023-05-07T09:07:27;7.10;;;2.33;;
828;SDS011;396;52.558;13.188;2023-05-07T09:09:54;6.20;;;1.83;;
828;SDS011;396;52.558;13.188;2023-05-07T09:12:22;7.60;;;2.70;;
828;SDS011;396;52.558;13.188;2023-05-07T09:14:49;6.30;;;1.90;;
828;SDS011;396;52.558;13.188;2023-05-07T09:17:16;6.00;;;2.00;;
828;SDS011;396;52.558;13.188;2023-05-07T09:19:43;6.70;;;1.87;;
828;SDS011;396;52.558;13.188;2023-05-07T09:22:11;7.80;;;2.07;;
828;SDS011;396;52.558;13.188;2023-05-07T09:24:41;5.80;;;2.13;;
828;SDS011;396;52.558;13.188;2023-05-07T09:27:17;6.97;;;2.20;;
828;SDS011;396;52.558;13.188;2023-05-07T09:29:43;7.40;;;2.47;;
828;SDS011;396;52.558;13.188;2023-05-07T09:32:10;6.13;;;1.80;;
828;SDS011;396;52.558;13.188;2023-05-07T09:34:38;12.03;;;1.93;;
828;SDS011;396;52.558;13.188;2023-05-07T09:37:05;5.97;;;1.90;;
828;SDS011;396;52.558;13.188;2023-05-07T09:39:39;5.63;;;2.10;;
828;SDS011;396;52.558;13.188;2023-05-07T09:42:10;7.53;;;1.70;;
828;SDS011;396;52.558;13.188;2023-05-07T09:44:37;8.10;;;2.13;;
828;SDS011;396;52.558;13.188;2023-05-07T09:47:05;5.73;;;1.57;;
828;SDS011;396;52.558;13.188;2023-05-07T09:49:33;6.30;;;1.63;;
828;SDS011;396;52.558;13.188;2023-05-07T09:52:02;7.30;;;1.97;;
828;SDS011;396;52.558;13.188;2023-05-07T09:54:31;5.47;;;1.40;;
828;SDS011;396;52.558;13.188;2023-05-07T09:57:00;5.97;;;2.50;;
828;SDS011;396;52.558;13.188;2023-05-07T09:59:28;6.10;;;1.63;;
828;SDS011;396;52.558;13.188;2023-05-07T10:01:57;6.50;;;1.90;;
828;SDS011;396;52.558;13.188;2023-05-07T10:04:25;4.90;;;1.53;;
828;SDS011;396;52.558;13.188;2023-05-07T10:06:52;5.70;;;1.90;;
828;SDS011;396;52.558;13.188;2023-05-07T10:09:20;6.03;;;1.93;;
828;SDS011;396;52.558;13.188;2023-05-07T10:11:48;6.30;;;2.20;;
828;SDS011;396;52.558;13.188;2023-05-07T10:14:16;6.13;;;2.20;;
828;SDS011;396;52.558;13.188;2023-05-07T10:16:43;6.97;;;2.27;;
828;SDS011;396;52.558;13.188;2023-05-07T10:19:10;6.10;;;1.87;;
828;SDS011;396;52.558;13.188;2023-05-07T10:21:39;7.83;;;1.80;;
828;SDS011;396;52.558;13.188;2023-05-07T10:24:15;6.27;;;2.07;;
828;SDS011;396;52.558;13.188;2023-05-07T10:26:47;6.70;;;1.60;;
828;SDS011;396;52.558;13.188;2023-05-07T10:29:18;6.30;;;1.67;;
828;SDS011;396;52.558;13.188;2023-05-07T10:31:54;6.33;;;2.33;;
828;SDS011;396;52.558;13.188;2023-05-07T10:34:26;8.20;;;1.83;;
828;SDS011;396;52.558;13.188;2023-05-07T10:36:58;5.37;;;1.47;;
828;SDS011;396;52.558;13.188;2023-05-07T10:39:26;7.63;;;2.00;;
828;SDS011;396;52.558;13.188;2023-05-07T10:41:53;5.30;;;1.53;;
828;SDS011;396;52.558;13.188;2023-05-07T10:44:28;5.83;;;1.60;;
828;SDS011;396;52.558;13.188;2023-05-07T10:47:03;4.80;;;1.23;;
828;SDS011;396;52.558;13.188;2023-05-07T10:49:33;6.30;;;1.27;;
828;SDS011;396;52.558;13.188;2023-05-07T10:52:13;7.33;;;1.87;;
828;SDS011;396;52.558;13.188;2023-05-07T10:54:41;5.43;;;1.40;;
828;SDS011;396;52.558;13.188;2023-05-07T11:00:02;5.03;;;1.30;;
828;SDS011;396;52.558;13.188;2023-05-07T11:05:33;6.50;;;1.57;;
828;SDS011;396;52.558;13.188;2023-05-07T11:08:00;7.13;;;1.40;;
828;SDS011;396;52.558;13.188;2023-05-07T11:10:47;4.70;;;1.10;;
828;SDS011;396;52.558;13.188;2023-05-07T11:13:15;4.60;;;1.27;;
828;SDS011;396;52.558;13.188;2023-05-07T11:15:44;6.30;;;1.23;;
828;SDS011;396;52.558;13.188;2023-05-07T11:18:12;5.03;;;1.43;;
828;SDS011;396;52.558;13.188;2023-05-07T11:20:50;9.20;;;1.37;;
828;SDS011;396;52.558;13.188;2023-05-07T11:26:23;4.50;;;1.10;;
828;SDS011;396;52.558;13.188;2023-05-07T11:28:50;7.00;;;1.40;;
828;SDS011;396;52.558;13.188;2023-05-07T11:31:21;6.33;;;1.53;;
828;SDS011;396;52.558;13.188;2023-05-07T11:33:51;4.50;;;1.20;;
828;SDS011;396;52.558;13.188;2023-05-07T11:36:22;5.23;;;1.10;;
828;SDS011;396;52.558;13.188;2023-05-07T11:38:50;6.27;;;1.83;;
828;SDS011;396;52.558;13.188;2023-05-07T11:41:16;5.20;;;1.10;;
828;SDS011;396;52.558;13.188;2023-05-07T11:43:54;4.60;;;1.03;;
828;SDS011;396;52.558;13.188;2023-05-07T11:46:23;5.70;;;1.13;;
828;SDS011;396;52.558;13.188;2023-05-07T11:48:50;4.70;;;1.30;;
828;SDS011;396;52.558;13.188;2023-05-07T11:51:20;4.53;;;1.10;;
828;SDS011;396;52.558;13.188;2023-05-07T11:53:47;4.80;;;1.17;;
828;SDS011;396;52.558;13.188;2023-05-07T11:56:15;4.77;;;1.20;;
828;SDS011;396;52.558;13.188;2023-05-07T11:58:45;7.33;;;1.40;;
828;SDS011;396;52.558;13.188;2023-05-07T12:01:13;4.80;;;1.30;;
828;SDS011;396;52.558;13.188;2023-05-07T12:03:43;4.70;;;1.10;;
828;SDS011;396;52.558;13.188;2023-05-07T12:06:11;5.53;;;1.23;;
828;SDS011;396;52.558;13.188;2023-05-07T12:08:39;5.40;;;1.60;;
828;SDS011;396;52.558;13.188;2023-05-07T12:11:07;4.30;;;1.00;;
828;SDS011;396;52.558;13.188;2023-05-07T12:13:36;4.80;;;1.17;;
828;SDS011;396;52.558;13.188;2023-05-07T12:16:03;4.30;;;1.00;;
828;SDS011;396;52.558;13.188;2023-05-07T12:18:31;13.50;;;1.20;;
828;SDS011;396;52.558;13.188;2023-05-07T12:21:01;4.30;;;0.97;;
828;SDS011;396;52.558;13.188;2023-05-07T12:23:28;4.93;;;1.07;;
828;SDS011;396;52.558;13.188;2023-05-07T12:25:55;4.10;;;0.80;;
828;SDS011;396;52.558;13.188;2023-05-07T12:28:22;5.20;;;1.10;;
828;SDS011;396;52.558;13.188;2023-05-07T12:30:49;4.77;;;1.10;;
828;SDS011;396;52.558;13.188;2023-05-07T12:33:17;5.13;;;1.17;;
828;SDS011;396;52.558;13.188;2023-05-07T12:35:46;4.60;;;1.07;;
828;SDS011;396;52.558;13.188;2023-05-07T12:38:16;4.97;;;1.33;;
828;SDS011;396;52.558;13.188;2023-05-07T12:40:45;5.23;;;0.83;;
828;SDS011;396;52.558;13.188;2023-05-07T12:43:16;4.80;;;1.37;;
828;SDS011;396;52.558;13.188;2023-05-07T12:45:43;5.23;;;1.03;;
828;SDS011;396;52.558;13.188;2023-05-07T12:48:10;4.30;;;1.00;;
828;SDS011;396;52.558;13.188;2023-05-07T12:50:37;4.70;;;1.00;;
828;SDS011;396;52.558;13.188;2023-05-07T12:53:04;4.37;;;1.00;;
828;SDS011;396;52.558;13.188;2023-05-07T12:55:34;6.80;;;1.10;;
828;SDS011;396;52.558;13.188;2023-05-07T12:58:07;5.60;;;1.23;;
828;SDS011;396;52.558;13.188;2023-05-07T13:00:35;4.90;;;1.17;;
828;SDS011;396;52.558;13.188;2023-05-07T13:03:02;7.60;;;1.43;;
828;SDS011;396;52.558;13.188;2023-05-07T13:05:28;5.67;;;1.07;;
828;SDS011;396;52.558;13.188;2023-05-07T13:07:55;4.20;;;0.80;;
828;SDS011;396;52.558;13.188;2023-05-07T13:10:22;4.77;;;1.13;;
828;SDS011;396;52.558;13.188;2023-05-07T13:12:51;6.57;;;1.03;;
828;SDS011;396;52.558;13.188;2023-05-07T13:15:18;4.60;;;1.00;;
828;SDS011;396;52.558;13.188;2023-05-07T13:17:44;4.87;;;1.23;;
828;SDS011;396;52.558;13.188;2023-05-07T13:20:11;10.70;;;1.20;;
828;SDS011;396;52.558;13.188;2023-05-07T13:22:38;5.40;;;1.43;;
828;SDS011;396;52.558;13.188;2023-05-07T13:25:06;5.53;;;1.20;;
828;SDS011;396;52.558;13.188;2023-05-07T13:27:34;9.67;;;1.27;;
828;SDS011;396;52.558;13.188;2023-05-07T13:30:03;5.37;;;1.10;;
828;SDS011;396;52.558;13.188;2023-05-07T13:32:31;4.97;;;1.03;;
828;SDS011;396;52.558;13.188;2023-05-07T13:34:58;6.10;;;1.37;;
828;SDS011;396;52.558;13.188;2023-05-07T13:37:25;4.87;;;1.13;;
828;SDS011;396;52.558;13.188;2023-05-07T13:39:51;5.07;;;1.40;;
828;SDS011;396;52.558;13.188;2023-05-07T13:42:18;5.33;;;1.20;;
828;SDS011;396;52.558;13.188;2023-05-07T13:44:45;4.40;;;0.90;;
828;SDS011;396;52.558;13.188;2023-05-07T13:47:13;4.40;;;1.10;;
828;SDS011;396;52.558;13.188;2023-05-07T13:49:39;5.23;;;1.27;;
828;SDS011;396;52.558;13.188;2023-05-07T13:52:06;4.20;;;0.90;;
828;SDS011;396;52.558;13.188;2023-05-07T13:54:34;4.93;;;1.07;;
828;SDS011;396;52.558;13.188;2023-05-07T13:57:00;4.50;;;0.90;;
828;SDS011;396;52.558;13.188;2023-05-07T13:59:29;5.10;;;1.20;;
828;SDS011;396;52.558;13.188;2023-05-07T14:06:17;5.57;;;0.90;;
828;SDS011;396;52.558;13.188;2023-05-07T14:09:39;4.50;;;0.80;;
828;SDS011;396;52.558;13.188;2023-05-07T14:13:15;5.17;;;1.30;;
828;SDS011;396;52.558;13.188;2023-05-07T14:16:57;4.70;;;1.10;;
828;SDS011;396;52.558;13.188;2023-05-07T14:28:39;4.20;;;0.90;;
828;SDS011;396;52.558;13.188;2023-05-07T14:31:11;4.67;;;1.10;;
828;SDS011;396;52.558;13.188;2023-05-07T14:35:03;4.73;;;1.20;;
828;SDS011;396;52.558;13.188;2023-05-07T14:41:07;4.83;;;1.27;;
828;SDS011;396;52.558;13.188;2023-05-07T14:44:20;5.10;;;1.03;;
828;SDS011;396;52.558;13.188;2023-05-07T14:47:27;4.80;;;1.10;;
828;SDS011;396;52.558;13.188;2023-05-07T14:50:03;15.33;;;1.17;;
828;SDS011;396;52.558;13.188;2023-05-07T14:52:44;4.80;;;1.10;;
828;SDS011;396;52.558;13.188;2023-05-07T14:55:47;6.53;;;1.73;;
828;SDS011;396;52.558;13.188;2023-05-07T14:58:28;4.60;;;1.00;;
828;SDS011;396;52.558;13.188;2023-05-07T15:01:20;4.57;;;0.97;;
828;SDS011;396;52.558;13.188;2023-05-07T15:03:48;4.20;;;0.80;;
828;SDS011;396;52.558;13.188;2023-05-07T15:06:20;4.80;;;1.20;;
828;SDS011;396;52.558;13.188;2023-05-07T15:08:55;5.00;;;1.23;;
828;SDS011;396;52.558;13.188;2023-05-07T15:11:21;4.60;;;1.03;;
828;SDS011;396;52.558;13.188;2023-05-07T15:13:48;4.47;;;1.00;;
828;SDS011;396;52.558;13.188;2023-05-07T15:16:16;4.60;;;1.00;;
828;SDS011;396;52.558;13.188;2023-05-07T15:18:44;6.00;;;1.10;;
828;SDS011;396;52.558;13.188;2023-05-07T15:21:11;5.23;;;1.10;;
828;SDS011;396;52.558;13.188;2023-05-07T15:23:38;4.43;;;1.07;;
828;SDS011;396;52.558;13.188;2023-05-07T15:26:06;4.33;;;1.07;;
828;SDS011;396;52.558;13.188;2023-05-07T15:28:33;4.70;;;1.03;;
828;SDS011;396;52.558;13.188;2023-05-07T15:31:00;4.70;;;1.10;;
828;SDS011;396;52.558;13.188;2023-05-07T15:33:28;4.30;;;0.97;;
828;SDS011;396;52.558;13.188;2023-05-07T15:35:54;4.60;;;1.03;;
828;SDS011;396;52.558;13.188;2023-05-07T15:38:23;5.20;;;1.20;;
828;SDS011;396;52.558;13.188;2023-05-07T15:40:52;5.00;;;1.10;;
828;SDS011;396;52.558;13.188;2023-05-07T15:43:19;4.40;;;0.90;;
828;SDS011;396;52.558;13.188;2023-05-07T15:45:46;4.77;;;1.10;;
828;SDS011;396;52.558;13.188;2023-05-07T15:48:13;4.60;;;1.10;;
828;SDS011;396;52.558;13.188;2023-05-07T15:50:44;4.60;;;1.00;;
828;SDS011;396;52.558;13.188;2023-05-07T15:53:11;4.10;;;0.67;;
828;SDS011;396;52.558;13.188;2023-05-07T15:55:39;4.93;;;1.30;;
828;SDS011;396;52.558;13.188;2023-05-07T15:58:08;4.83;;;1.00;;
828;SDS011;396;52.558;13.188;2023-05-07T16:00:35;5.80;;;1.37;;
828;SDS011;396;52.558;13.188;2023-05-07T16:03:04;4.50;;;0.87;;
828;SDS011;396;52.558;13.188;2023-05-07T16:05:34;4.70;;;0.90;;